Terminal Aerodrome Forecast
Issued by NWS Columbia, SC

Home | Current Version | Previous Version | Text Only | Print | Product List | Glossary On
Versions: 1 2 3 4 5 6 7 8 9 10 11 12 13 14 15 16 17 18 19 20 21 22 23 24
000
FTUS42 KCAE 301100
TAFCAE
TAF
KCAE 301133Z 3012/3112 24010G15KT P6SM -SHRA SCT015 OVC050
      TEMPO 3012/3014 4SM TSRA BR OVC015CB
     FM301600 27012G18KT P6SM BKN025
     FM302000 29012KT P6SM SCT050
     FM310100 32004KT P6SM SCT250=

USA.gov is the U.S. government's official web portal to all federal, state and local government web resources and services.